sensor_id;sensor_type;location;lat;lon;timestamp;temperature;humidity
53045;DHT22;38930;52.766;6.884;2023-08-30T00:00:19;14.20;99.90
53045;DHT22;38930;52.766;6.884;2023-08-30T00:02:48;14.20;99.90
53045;DHT22;38930;52.766;6.884;2023-08-30T00:05:14;14.20;99.90
53045;DHT22;38930;52.766;6.884;2023-08-30T00:07:40;14.00;99.90
53045;DHT22;38930;52.766;6.884;2023-08-30T00:10:08;14.00;99.90
53045;DHT22;38930;52.766;6.884;2023-08-30T00:12:36;13.90;99.90
53045;DHT22;38930;52.766;6.884;2023-08-30T00:15:01;13.90;99.90
53045;DHT22;38930;52.766;6.884;2023-08-30T00:17:27;13.80;99.90
53045;DHT22;38930;52.766;6.884;2023-08-30T00:19:53;13.80;99.90
53045;DHT22;38930;52.766;6.884;2023-08-30T00:22:21;13.80;99.90
53045;DHT22;38930;52.766;6.884;2023-08-30T00:24:47;14.30;99.90
53045;DHT22;38930;52.766;6.884;2023-08-30T00:27:12;13.80;99.90
53045;DHT22;38930;52.766;6.884;2023-08-30T00:29:38;13.80;99.90
53045;DHT22;38930;52.766;6.884;2023-08-30T00:32:04;13.70;99.90
53045;DHT22;38930;52.766;6.884;2023-08-30T00:34:29;13.70;99.90
53045;DHT22;38930;52.766;6.884;2023-08-30T00:36:55;13.70;99.90
53045;DHT22;38930;52.766;6.884;2023-08-30T00:39:21;13.60;99.90
53045;DHT22;38930;52.766;6.884;2023-08-30T00:41:46;13.60;99.90
53045;DHT22;38930;52.766;6.884;2023-08-30T00:44:12;13.60;99.90
53045;DHT22;38930;52.766;6.884;2023-08-30T00:46:38;13.60;99.90
53045;DHT22;38930;52.766;6.884;2023-08-30T00:49:04;13.50;99.90
53045;DHT22;38930;52.766;6.884;2023-08-30T00:51:30;13.50;99.90
53045;DHT22;38930;52.766;6.884;2023-08-30T00:53:57;13.60;99.90
53045;DHT22;38930;52.766;6.884;2023-08-30T00:56:23;13.50;99.90
53045;DHT22;38930;52.766;6.884;2023-08-30T00:58:49;13.50;99.90
53045;DHT22;38930;52.766;6.884;2023-08-30T01:01:16;13.50;99.90
53045;DHT22;38930;52.766;6.884;2023-08-30T01:03:43;13.40;99.90
53045;DHT22;38930;52.766;6.884;2023-08-30T01:06:09;13.40;99.90
53045;DHT22;38930;52.766;6.884;2023-08-30T01:08:36;13.40;99.90
53045;DHT22;38930;52.766;6.884;2023-08-30T01:11:22;13.40;99.90
53045;DHT22;38930;52.766;6.884;2023-08-30T01:13:57;13.40;99.90
53045;DHT22;38930;52.766;6.884;2023-08-30T01:16:24;13.40;99.90
53045;DHT22;38930;52.766;6.884;2023-08-30T01:18:55;13.40;99.90
53045;DHT22;38930;52.766;6.884;2023-08-30T01:24:09;13.40;99.90
53045;DHT22;38930;52.766;6.884;2023-08-30T01:26:45;13.30;99.90
53045;DHT22;38930;52.766;6.884;2023-08-30T01:29:14;13.30;99.90
53045;DHT22;38930;52.766;6.884;2023-08-30T01:31:42;13.30;99.90
53045;DHT22;38930;52.766;6.884;2023-08-30T01:34:09;13.20;99.90
53045;DHT22;38930;52.766;6.884;2023-08-30T01:36:36;13.20;99.90
53045;DHT22;38930;52.766;6.884;2023-08-30T01:39:02;13.20;99.90
53045;DHT22;38930;52.766;6.884;2023-08-30T01:41:30;13.10;99.90
53045;DHT22;38930;52.766;6.884;2023-08-30T01:43:57;13.10;99.90
53045;DHT22;38930;52.766;6.884;2023-08-30T01:46:24;13.30;99.90
53045;DHT22;38930;52.766;6.884;2023-08-30T01:48:51;13.00;99.90
53045;DHT22;38930;52.766;6.884;2023-08-30T01:51:17;13.00;99.90
53045;DHT22;38930;52.766;6.884;2023-08-30T01:53:46;12.90;99.90
53045;DHT22;38930;52.766;6.884;2023-08-30T01:56:12;12.90;99.90
53045;DHT22;38930;52.766;6.884;2023-08-30T01:58:38;12.90;99.90
53045;DHT22;38930;52.766;6.884;2023-08-30T02:01:03;12.80;99.90
53045;DHT22;38930;52.766;6.884;2023-08-30T02:03:29;12.80;99.90
53045;DHT22;38930;52.766;6.884;2023-08-30T02:06:08;12.80;99.90
53045;DHT22;38930;52.766;6.884;2023-08-30T02:09:11;12.80;99.90
53045;DHT22;38930;52.766;6.884;2023-08-30T02:11:42;12.70;99.90
53045;DHT22;38930;52.766;6.884;2023-08-30T02:14:10;12.70;99.90
53045;DHT22;38930;52.766;6.884;2023-08-30T02:16:37;12.70;99.90
53045;DHT22;38930;52.766;6.884;2023-08-30T02:19:05;12.60;99.90
53045;DHT22;38930;52.766;6.884;2023-08-30T02:21:32;12.60;99.90
53045;DHT22;38930;52.766;6.884;2023-08-30T02:23:57;12.50;99.90
53045;DHT22;38930;52.766;6.884;2023-08-30T02:26:23;12.50;99.90
53045;DHT22;38930;52.766;6.884;2023-08-30T02:28:48;12.50;99.90
53045;DHT22;38930;52.766;6.884;2023-08-30T02:31:14;12.50;99.90
53045;DHT22;38930;52.766;6.884;2023-08-30T02:33:40;12.50;99.90
53045;DHT22;38930;52.766;6.884;2023-08-30T02:36:06;12.40;99.90
53045;DHT22;38930;52.766;6.884;2023-08-30T02:38:34;12.40;99.90
53045;DHT22;38930;52.766;6.884;2023-08-30T02:41:00;12.30;99.90
53045;DHT22;38930;52.766;6.884;2023-08-30T02:43:25;12.30;99.90
53045;DHT22;38930;52.766;6.884;2023-08-30T02:45:51;12.30;99.90
53045;DHT22;38930;52.766;6.884;2023-08-30T02:48:17;12.20;99.90
53045;DHT22;38930;52.766;6.884;2023-08-30T02:50:43;12.20;99.90
53045;DHT22;38930;52.766;6.884;2023-08-30T02:53:09;12.30;99.90
53045;DHT22;38930;52.766;6.884;2023-08-30T02:55:35;12.10;99.90
53045;DHT22;38930;52.766;6.884;2023-08-30T02:58:00;12.10;99.90
53045;DHT22;38930;52.766;6.884;2023-08-30T03:00:26;12.10;99.90
53045;DHT22;38930;52.766;6.884;2023-08-30T03:02:52;12.00;99.90
53045;DHT22;38930;52.766;6.884;2023-08-30T03:05:18;12.20;99.90
53045;DHT22;38930;52.766;6.884;2023-08-30T03:07:44;12.00;99.90
53045;DHT22;38930;52.766;6.884;2023-08-30T03:10:11;12.00;99.90
53045;DHT22;38930;52.766;6.884;2023-08-30T03:12:37;12.00;99.90
53045;DHT22;38930;52.766;6.884;2023-08-30T03:15:03;12.00;99.90
53045;DHT22;38930;52.766;6.884;2023-08-30T03:17:29;12.00;99.90
53045;DHT22;38930;52.766;6.884;2023-08-30T03:19:55;12.00;99.90
53045;DHT22;38930;52.766;6.884;2023-08-30T03:22:21;12.00;99.90
53045;DHT22;38930;52.766;6.884;2023-08-30T03:24:47;12.00;99.90
53045;DHT22;38930;52.766;6.884;2023-08-30T03:27:12;12.00;99.90
53045;DHT22;38930;52.766;6.884;2023-08-30T03:29:38;12.00;99.90
53045;DHT22;38930;52.766;6.884;2023-08-30T03:32:04;12.00;99.90
53045;DHT22;38930;52.766;6.884;2023-08-30T03:34:30;12.00;99.90
53045;DHT22;38930;52.766;6.884;2023-08-30T03:36:55;12.10;99.90
53045;DHT22;38930;52.766;6.884;2023-08-30T03:39:21;12.40;99.90
53045;DHT22;38930;52.766;6.884;2023-08-30T03:41:47;12.10;99.90
53045;DHT22;38930;52.766;6.884;2023-08-30T03:44:13;12.10;99.90
53045;DHT22;38930;52.766;6.884;2023-08-30T03:46:38;12.10;99.90
53045;DHT22;38930;52.766;6.884;2023-08-30T03:49:04;12.10;99.90
53045;DHT22;38930;52.766;6.884;2023-08-30T03:51:30;12.10;99.90
53045;DHT22;38930;52.766;6.884;2023-08-30T03:53:55;12.10;99.90
53045;DHT22;38930;52.766;6.884;2023-08-30T03:56:24;12.00;99.90
53045;DHT22;38930;52.766;6.884;2023-08-30T03:58:50;12.00;99.90
53045;DHT22;38930;52.766;6.884;2023-08-30T04:01:15;12.00;99.90
53045;DHT22;38930;52.766;6.884;2023-08-30T04:03:41;11.90;99.90
53045;DHT22;38930;52.766;6.884;2023-08-30T04:06:06;11.90;99.90
53045;DHT22;38930;52.766;6.884;2023-08-30T04:08:32;11.90;99.90
53045;DHT22;38930;52.766;6.884;2023-08-30T04:10:58;11.90;99.90
53045;DHT22;38930;52.766;6.884;2023-08-30T04:13:24;11.80;99.90
53045;DHT22;38930;52.766;6.884;2023-08-30T04:15:49;11.80;99.90
53045;DHT22;38930;52.766;6.884;2023-08-30T04:18:16;11.80;99.90
53045;DHT22;38930;52.766;6.884;2023-08-30T04:20:46;11.80;99.90
53045;DHT22;38930;52.766;6.884;2023-08-30T04:23:12;11.80;99.90
53045;DHT22;38930;52.766;6.884;2023-08-30T04:25:38;11.80;99.90
53045;DHT22;38930;52.766;6.884;2023-08-30T04:28:04;11.80;99.90
53045;DHT22;38930;52.766;6.884;2023-08-30T04:30:30;11.90;99.90
53045;DHT22;38930;52.766;6.884;2023-08-30T04:32:55;11.90;99.90
53045;DHT22;38930;52.766;6.884;2023-08-30T04:35:21;11.90;99.90
53045;DHT22;38930;52.766;6.884;2023-08-30T04:37:47;11.90;99.90
53045;DHT22;38930;52.766;6.884;2023-08-30T04:40:14;11.90;99.90
53045;DHT22;38930;52.766;6.884;2023-08-30T04:42:40;11.90;99.90
53045;DHT22;38930;52.766;6.884;2023-08-30T04:45:06;12.00;99.90
53045;DHT22;38930;52.766;6.884;2023-08-30T04:47:32;12.00;99.90
53045;DHT22;38930;52.766;6.884;2023-08-30T04:49:59;12.00;99.90
53045;DHT22;38930;52.766;6.884;2023-08-30T04:52:25;12.00;99.90
53045;DHT22;38930;52.766;6.884;2023-08-30T04:54:51;12.00;99.90
53045;DHT22;38930;52.766;6.884;2023-08-30T04:57:17;12.10;99.90
53045;DHT22;38930;52.766;6.884;2023-08-30T04:59:43;12.00;99.90
53045;DHT22;38930;52.766;6.884;2023-08-30T05:02:09;12.00;99.90
53045;DHT22;38930;52.766;6.884;2023-08-30T05:04:35;12.00;99.90
53045;DHT22;38930;52.766;6.884;2023-08-30T05:07:01;12.10;99.90
53045;DHT22;38930;52.766;6.884;2023-08-30T05:09:27;12.00;99.90
53045;DHT22;38930;52.766;6.884;2023-08-30T05:11:53;12.00;99.90
53045;DHT22;38930;52.766;6.884;2023-08-30T05:14:19;12.00;99.90
53045;DHT22;38930;52.766;6.884;2023-08-30T05:16:45;12.00;99.90
53045;DHT22;38930;52.766;6.884;2023-08-30T05:19:11;12.10;99.90
53045;DHT22;38930;52.766;6.884;2023-08-30T05:21:37;12.10;99.90
53045;DHT22;38930;52.766;6.884;2023-08-30T05:24:03;12.10;99.90
53045;DHT22;38930;52.766;6.884;2023-08-30T05:26:31;12.20;99.90
53045;DHT22;38930;52.766;6.884;2023-08-30T05:28:56;12.20;99.90
53045;DHT22;38930;52.766;6.884;2023-08-30T05:31:22;12.20;99.90
53045;DHT22;38930;52.766;6.884;2023-08-30T05:33:47;12.30;99.90
53045;DHT22;38930;52.766;6.884;2023-08-30T05:36:13;12.60;99.90
53045;DHT22;38930;52.766;6.884;2023-08-30T05:38:39;12.40;99.90
53045;DHT22;38930;52.766;6.884;2023-08-30T05:41:04;12.40;99.90
53045;DHT22;38930;52.766;6.884;2023-08-30T05:43:30;12.40;99.90
53045;DHT22;38930;52.766;6.884;2023-08-30T05:45:56;12.50;99.90
53045;DHT22;38930;52.766;6.884;2023-08-30T05:48:27;12.50;99.90
53045;DHT22;38930;52.766;6.884;2023-08-30T05:50:52;12.70;99.90
53045;DHT22;38930;52.766;6.884;2023-08-30T05:53:18;12.60;99.90
53045;DHT22;38930;52.766;6.884;2023-08-30T05:55:43;12.60;99.90
53045;DHT22;38930;52.766;6.884;2023-08-30T05:58:09;12.70;99.90
53045;DHT22;38930;52.766;6.884;2023-08-30T06:00:35;12.70;99.90
53045;DHT22;38930;52.766;6.884;2023-08-30T06:03:00;12.70;99.90
53045;DHT22;38930;52.766;6.884;2023-08-30T06:05:26;12.80;99.90
53045;DHT22;38930;52.766;6.884;2023-08-30T06:07:52;12.80;99.90
53045;DHT22;38930;52.766;6.884;2023-08-30T06:10:19;12.90;99.90
53045;DHT22;38930;52.766;6.884;2023-08-30T06:12:45;12.90;99.90
53045;DHT22;38930;52.766;6.884;2023-08-30T06:15:10;13.00;99.90
53045;DHT22;38930;52.766;6.884;2023-08-30T06:17:36;13.00;99.90
53045;DHT22;38930;52.766;6.884;2023-08-30T06:20:02;13.10;99.90
53045;DHT22;38930;52.766;6.884;2023-08-30T06:22:28;13.10;99.90
53045;DHT22;38930;52.766;6.884;2023-08-30T06:24:54;13.10;99.90
53045;DHT22;38930;52.766;6.884;2023-08-30T06:27:19;13.10;99.90
53045;DHT22;38930;52.766;6.884;2023-08-30T06:29:46;13.20;99.90
53045;DHT22;38930;52.766;6.884;2023-08-30T06:32:11;13.20;99.90
53045;DHT22;38930;52.766;6.884;2023-08-30T06:34:37;13.20;99.90
53045;DHT22;38930;52.766;6.884;2023-08-30T06:37:02;13.30;99.90
53045;DHT22;38930;52.766;6.884;2023-08-30T06:39:35;13.30;99.90
53045;DHT22;38930;52.766;6.884;2023-08-30T06:42:02;13.40;99.90
53045;DHT22;38930;52.766;6.884;2023-08-30T06:44:28;13.50;99.90
53045;DHT22;38930;52.766;6.884;2023-08-30T06:46:57;13.50;99.90
53045;DHT22;38930;52.766;6.884;2023-08-30T06:49:23;13.60;99.90
53045;DHT22;38930;52.766;6.884;2023-08-30T06:51:49;13.70;99.90
53045;DHT22;38930;52.766;6.884;2023-08-30T06:54:15;13.80;99.90
53045;DHT22;38930;52.766;6.884;2023-08-30T06:56:40;13.70;99.90
53045;DHT22;38930;52.766;6.884;2023-08-30T06:59:06;13.90;99.90
53045;DHT22;38930;52.766;6.884;2023-08-30T07:01:31;14.00;99.90
53045;DHT22;38930;52.766;6.884;2023-08-30T07:03:57;14.00;99.90
53045;DHT22;38930;52.766;6.884;2023-08-30T07:06:23;14.10;99.90
53045;DHT22;38930;52.766;6.884;2023-08-30T07:08:49;14.20;99.90
53045;DHT22;38930;52.766;6.884;2023-08-30T07:11:15;14.30;99.90
53045;DHT22;38930;52.766;6.884;2023-08-30T07:13:40;14.40;99.90
53045;DHT22;38930;52.766;6.884;2023-08-30T07:16:06;14.50;99.90
53045;DHT22;38930;52.766;6.884;2023-08-30T07:18:31;14.80;99.90
53045;DHT22;38930;52.766;6.884;2023-08-30T07:20:57;14.80;99.90
53045;DHT22;38930;52.766;6.884;2023-08-30T07:23:23;15.40;99.90
53045;DHT22;38930;52.766;6.884;2023-08-30T07:25:48;15.20;99.90
53045;DHT22;38930;52.766;6.884;2023-08-30T07:28:16;15.30;99.90
53045;DHT22;38930;52.766;6.884;2023-08-30T07:30:42;15.40;99.90
53045;DHT22;38930;52.766;6.884;2023-08-30T07:33:07;15.50;99.90
53045;DHT22;38930;52.766;6.884;2023-08-30T07:35:33;15.50;99.90
53045;DHT22;38930;52.766;6.884;2023-08-30T07:37:59;15.60;99.90
53045;DHT22;38930;52.766;6.884;2023-08-30T07:40:24;15.60;99.90
53045;DHT22;38930;52.766;6.884;2023-08-30T07:42:52;15.60;99.90
53045;DHT22;38930;52.766;6.884;2023-08-30T07:45:18;15.60;99.90
53045;DHT22;38930;52.766;6.884;2023-08-30T07:47:43;15.60;99.90
53045;DHT22;38930;52.766;6.884;2023-08-30T07:50:09;15.70;99.90
53045;DHT22;38930;52.766;6.884;2023-08-30T07:52:35;15.70;99.90
53045;DHT22;38930;52.766;6.884;2023-08-30T07:55:01;15.80;99.90
53045;DHT22;38930;52.766;6.884;2023-08-30T07:57:27;15.80;99.90
53045;DHT22;38930;52.766;6.884;2023-08-30T07:59:52;15.90;99.90
53045;DHT22;38930;52.766;6.884;2023-08-30T08:02:18;15.80;99.90
53045;DHT22;38930;52.766;6.884;2023-08-30T08:04:44;15.80;99.90
53045;DHT22;38930;52.766;6.884;2023-08-30T08:07:09;16.00;99.90
53045;DHT22;38930;52.766;6.884;2023-08-30T08:09:35;16.20;99.90
53045;DHT22;38930;52.766;6.884;2023-08-30T08:12:00;16.30;99.90
53045;DHT22;38930;52.766;6.884;2023-08-30T08:14:26;16.50;99.90
53045;DHT22;38930;52.766;6.884;2023-08-30T08:16:52;16.70;99.90
53045;DHT22;38930;52.766;6.884;2023-08-30T08:19:18;17.00;99.90
53045;DHT22;38930;52.766;6.884;2023-08-30T08:21:45;17.20;99.90
53045;DHT22;38930;52.766;6.884;2023-08-30T08:24:10;17.40;99.90
53045;DHT22;38930;52.766;6.884;2023-08-30T08:26:36;17.50;99.90
53045;DHT22;38930;52.766;6.884;2023-08-30T08:29:01;17.60;99.90
53045;DHT22;38930;52.766;6.884;2023-08-30T08:31:28;17.70;99.90
53045;DHT22;38930;52.766;6.884;2023-08-30T08:34:10;17.70;99.90
53045;DHT22;38930;52.766;6.884;2023-08-30T08:36:37;17.60;99.90
53045;DHT22;38930;52.766;6.884;2023-08-30T08:39:03;17.50;99.90
53045;DHT22;38930;52.766;6.884;2023-08-30T08:41:41;17.50;99.90
53045;DHT22;38930;52.766;6.884;2023-08-30T08:44:07;17.40;99.90
53045;DHT22;38930;52.766;6.884;2023-08-30T08:46:38;17.40;99.90
53045;DHT22;38930;52.766;6.884;2023-08-30T08:49:16;17.30;99.90
53045;DHT22;38930;52.766;6.884;2023-08-30T08:51:45;17.20;99.90
53045;DHT22;38930;52.766;6.884;2023-08-30T08:54:12;17.10;99.90
53045;DHT22;38930;52.766;6.884;2023-08-30T08:56:39;17.00;99.90
53045;DHT22;38930;52.766;6.884;2023-08-30T08:59:05;16.90;99.90
53045;DHT22;38930;52.766;6.884;2023-08-30T09:01:34;16.80;99.90
53045;DHT22;38930;52.766;6.884;2023-08-30T09:04:08;16.80;99.90
53045;DHT22;38930;52.766;6.884;2023-08-30T09:06:34;16.70;99.90
53045;DHT22;38930;52.766;6.884;2023-08-30T09:09:02;16.70;99.90
53045;DHT22;38930;52.766;6.884;2023-08-30T09:11:29;16.70;99.90
53045;DHT22;38930;52.766;6.884;2023-08-30T09:13:55;16.70;99.90
53045;DHT22;38930;52.766;6.884;2023-08-30T09:16:21;16.60;99.90
53045;DHT22;38930;52.766;6.884;2023-08-30T09:19:00;16.60;99.90
53045;DHT22;38930;52.766;6.884;2023-08-30T09:21:26;16.60;99.90
53045;DHT22;38930;52.766;6.884;2023-08-30T09:24:03;16.70;99.90
53045;DHT22;38930;52.766;6.884;2023-08-30T09:26:30;16.60;99.90
53045;DHT22;38930;52.766;6.884;2023-08-30T09:29:03;16.50;99.90
53045;DHT22;38930;52.766;6.884;2023-08-30T09:31:36;16.50;99.90
53045;DHT22;38930;52.766;6.884;2023-08-30T09:34:03;16.40;99.90
53045;DHT22;38930;52.766;6.884;2023-08-30T09:36:41;16.40;99.90
53045;DHT22;38930;52.766;6.884;2023-08-30T09:39:11;16.40;99.90
53045;DHT22;38930;52.766;6.884;2023-08-30T09:41:57;16.40;99.90
53045;DHT22;38930;52.766;6.884;2023-08-30T09:44:23;16.30;99.90
53045;DHT22;38930;52.766;6.884;2023-08-30T09:46:51;16.30;99.90
53045;DHT22;38930;52.766;6.884;2023-08-30T09:49:25;16.20;99.90
53045;DHT22;38930;52.766;6.884;2023-08-30T09:51:52;16.20;99.90
53045;DHT22;38930;52.766;6.884;2023-08-30T09:54:19;16.20;99.90
53045;DHT22;38930;52.766;6.884;2023-08-30T09:56:46;16.10;99.90
53045;DHT22;38930;52.766;6.884;2023-08-30T09:59:13;16.00;99.90
53045;DHT22;38930;52.766;6.884;2023-08-30T10:01:41;16.00;99.90
53045;DHT22;38930;52.766;6.884;2023-08-30T10:04:07;16.20;99.90
53045;DHT22;38930;52.766;6.884;2023-08-30T10:06:38;15.90;99.90
53045;DHT22;38930;52.766;6.884;2023-08-30T10:09:05;15.90;99.90
53045;DHT22;38930;52.766;6.884;2023-08-30T10:11:35;15.90;99.90
53045;DHT22;38930;52.766;6.884;2023-08-30T10:14:05;15.90;99.90
53045;DHT22;38930;52.766;6.884;2023-08-30T10:16:43;15.90;99.90
53045;DHT22;38930;52.766;6.884;2023-08-30T10:21:37;16.00;99.90
53045;DHT22;38930;52.766;6.884;2023-08-30T10:24:06;16.00;99.90
53045;DHT22;38930;52.766;6.884;2023-08-30T10:26:33;16.10;99.90
53045;DHT22;38930;52.766;6.884;2023-08-30T10:28:59;16.20;99.90
53045;DHT22;38930;52.766;6.884;2023-08-30T10:31:27;16.20;99.90
53045;DHT22;38930;52.766;6.884;2023-08-30T10:33:54;16.30;99.90
53045;DHT22;38930;52.766;6.884;2023-08-30T10:36:24;16.30;99.90
53045;DHT22;38930;52.766;6.884;2023-08-30T10:38:51;16.40;99.90
53045;DHT22;38930;52.766;6.884;2023-08-30T10:41:26;16.40;99.90
53045;DHT22;38930;52.766;6.884;2023-08-30T10:43:52;16.40;99.90
53045;DHT22;38930;52.766;6.884;2023-08-30T10:46:33;16.40;99.90
53045;DHT22;38930;52.766;6.884;2023-08-30T10:49:09;16.40;99.90
53045;DHT22;38930;52.766;6.884;2023-08-30T10:51:37;16.30;99.90
53045;DHT22;38930;52.766;6.884;2023-08-30T10:54:23;16.30;99.90
53045;DHT22;38930;52.766;6.884;2023-08-30T10:56:55;16.20;99.90
53045;DHT22;38930;52.766;6.884;2023-08-30T10:59:30;16.10;99.90
53045;DHT22;38930;52.766;6.884;2023-08-30T11:01:56;15.90;99.90
53045;DHT22;38930;52.766;6.884;2023-08-30T11:04:22;15.90;99.90
53045;DHT22;38930;52.766;6.884;2023-08-30T11:06:49;15.80;99.90
53045;DHT22;38930;52.766;6.884;2023-08-30T11:09:25;15.80;99.90
53045;DHT22;38930;52.766;6.884;2023-08-30T11:11:51;15.70;99.90
53045;DHT22;38930;52.766;6.884;2023-08-30T11:14:18;15.70;99.90
53045;DHT22;38930;52.766;6.884;2023-08-30T11:16:44;15.60;99.90
53045;DHT22;38930;52.766;6.884;2023-08-30T11:19:11;15.60;99.90
53045;DHT22;38930;52.766;6.884;2023-08-30T11:21:43;15.50;99.90
53045;DHT22;38930;52.766;6.884;2023-08-30T11:24:09;15.50;99.90
53045;DHT22;38930;52.766;6.884;2023-08-30T11:26:35;15.30;99.90
53045;DHT22;38930;52.766;6.884;2023-08-30T11:29:05;15.40;99.90
53045;DHT22;38930;52.766;6.884;2023-08-30T11:31:30;15.40;99.90
53045;DHT22;38930;52.766;6.884;2023-08-30T11:33:58;15.30;99.90
53045;DHT22;38930;52.766;6.884;2023-08-30T11:36:26;15.30;99.90
53045;DHT22;38930;52.766;6.884;2023-08-30T11:38:53;15.30;99.90
53045;DHT22;38930;52.766;6.884;2023-08-30T11:41:23;15.20;99.90
53045;DHT22;38930;52.766;6.884;2023-08-30T11:43:49;15.20;99.90
53045;DHT22;38930;52.766;6.884;2023-08-30T11:46:15;15.20;99.90
53045;DHT22;38930;52.766;6.884;2023-08-30T11:48:41;15.30;99.90
53045;DHT22;38930;52.766;6.884;2023-08-30T11:51:08;15.30;99.90
53045;DHT22;38930;52.766;6.884;2023-08-30T11:53:34;15.30;99.90
53045;DHT22;38930;52.766;6.884;2023-08-30T11:56:01;15.40;99.90
53045;DHT22;38930;52.766;6.884;2023-08-30T11:58:26;15.40;99.90
53045;DHT22;38930;52.766;6.884;2023-08-30T12:00:53;15.50;99.90
53045;DHT22;38930;52.766;6.884;2023-08-30T12:03:22;15.50;99.90
53045;DHT22;38930;52.766;6.884;2023-08-30T12:05:49;15.50;99.90
53045;DHT22;38930;52.766;6.884;2023-08-30T12:08:24;15.80;99.90
53045;DHT22;38930;52.766;6.884;2023-08-30T12:10:50;15.50;99.90
53045;DHT22;38930;52.766;6.884;2023-08-30T12:15:49;15.50;99.90
53045;DHT22;38930;52.766;6.884;2023-08-30T12:18:15;15.50;99.90
53045;DHT22;38930;52.766;6.884;2023-08-30T12:20:58;15.60;99.90
53045;DHT22;38930;52.766;6.884;2023-08-30T12:23:25;15.50;99.90
53045;DHT22;38930;52.766;6.884;2023-08-30T12:26:09;15.50;99.90
53045;DHT22;38930;52.766;6.884;2023-08-30T12:28:44;15.50;99.90
53045;DHT22;38930;52.766;6.884;2023-08-30T12:31:10;16.00;99.90
53045;DHT22;38930;52.766;6.884;2023-08-30T12:33:37;15.50;99.90
53045;DHT22;38930;52.766;6.884;2023-08-30T12:36:03;15.60;99.90
53045;DHT22;38930;52.766;6.884;2023-08-30T12:38:29;15.50;99.90
53045;DHT22;38930;52.766;6.884;2023-08-30T12:40:55;15.50;99.90
53045;DHT22;38930;52.766;6.884;2023-08-30T12:43:22;15.50;99.90
53045;DHT22;38930;52.766;6.884;2023-08-30T12:45:49;15.50;99.90
53045;DHT22;38930;52.766;6.884;2023-08-30T12:48:16;15.50;99.90
53045;DHT22;38930;52.766;6.884;2023-08-30T12:50:46;15.70;99.90
53045;DHT22;38930;52.766;6.884;2023-08-30T12:53:12;15.70;99.90
53045;DHT22;38930;52.766;6.884;2023-08-30T12:55:38;16.20;99.90
53045;DHT22;38930;52.766;6.884;2023-08-30T12:58:06;15.80;99.90
53045;DHT22;38930;52.766;6.884;2023-08-30T13:00:32;16.20;99.90
53045;DHT22;38930;52.766;6.884;2023-08-30T13:02:58;16.40;99.90
53045;DHT22;38930;52.766;6.884;2023-08-30T13:05:24;16.00;99.90
53045;DHT22;38930;52.766;6.884;2023-08-30T13:07:50;16.10;99.90
53045;DHT22;38930;52.766;6.884;2023-08-30T13:10:16;16.10;99.90
53045;DHT22;38930;52.766;6.884;2023-08-30T13:12:42;16.10;99.90
53045;DHT22;38930;52.766;6.884;2023-08-30T13:15:08;16.10;99.90
53045;DHT22;38930;52.766;6.884;2023-08-30T13:17:34;16.10;99.90
53045;DHT22;38930;52.766;6.884;2023-08-30T13:20:00;16.10;99.90
53045;DHT22;38930;52.766;6.884;2023-08-30T13:22:27;16.10;99.90
53045;DHT22;38930;52.766;6.884;2023-08-30T13:24:53;16.20;99.90
53045;DHT22;38930;52.766;6.884;2023-08-30T13:27:19;16.30;99.90
53045;DHT22;38930;52.766;6.884;2023-08-30T13:29:45;16.40;99.90
53045;DHT22;38930;52.766;6.884;2023-08-30T13:32:10;16.60;99.90
53045;DHT22;38930;52.766;6.884;2023-08-30T13:34:37;16.40;99.90
53045;DHT22;38930;52.766;6.884;2023-08-30T13:37:03;16.40;99.90
53045;DHT22;38930;52.766;6.884;2023-08-30T13:39:29;16.50;99.90
53045;DHT22;38930;52.766;6.884;2023-08-30T13:41:55;16.50;99.90
53045;DHT22;38930;52.766;6.884;2023-08-30T13:44:20;16.50;99.90
53045;DHT22;38930;52.766;6.884;2023-08-30T13:46:46;16.50;99.90
53045;DHT22;38930;52.766;6.884;2023-08-30T13:49:15;16.50;99.90
53045;DHT22;38930;52.766;6.884;2023-08-30T13:51:41;16.50;99.90
53045;DHT22;38930;52.766;6.884;2023-08-30T13:54:07;16.40;99.90
53045;DHT22;38930;52.766;6.884;2023-08-30T13:56:32;16.50;99.90
53045;DHT22;38930;52.766;6.884;2023-08-30T13:58:58;16.50;99.90
53045;DHT22;38930;52.766;6.884;2023-08-30T14:01:24;16.50;99.90
53045;DHT22;38930;52.766;6.884;2023-08-30T14:03:49;16.70;99.90
53045;DHT22;38930;52.766;6.884;2023-08-30T14:06:15;16.80;99.90
53045;DHT22;38930;52.766;6.884;2023-08-30T14:08:41;17.00;99.90
53045;DHT22;38930;52.766;6.884;2023-08-30T14:11:06;17.10;99.90
53045;DHT22;38930;52.766;6.884;2023-08-30T14:13:32;17.10;99.90
53045;DHT22;38930;52.766;6.884;2023-08-30T14:16:02;17.00;99.90
53045;DHT22;38930;52.766;6.884;2023-08-30T14:18:30;17.10;99.90
53045;DHT22;38930;52.766;6.884;2023-08-30T14:20:57;17.10;99.90
53045;DHT22;38930;52.766;6.884;2023-08-30T14:23:24;17.10;99.90
53045;DHT22;38930;52.766;6.884;2023-08-30T14:26:00;17.20;99.90
53045;DHT22;38930;52.766;6.884;2023-08-30T14:28:27;17.20;99.90
53045;DHT22;38930;52.766;6.884;2023-08-30T14:30:53;17.10;99.90
53045;DHT22;38930;52.766;6.884;2023-08-30T14:33:19;17.40;99.90
53045;DHT22;38930;52.766;6.884;2023-08-30T14:35:46;17.30;99.90
53045;DHT22;38930;52.766;6.884;2023-08-30T14:38:11;17.30;99.90
53045;DHT22;38930;52.766;6.884;2023-08-30T14:40:37;17.30;99.90
53045;DHT22;38930;52.766;6.884;2023-08-30T14:43:04;17.30;99.90
53045;DHT22;38930;52.766;6.884;2023-08-30T14:45:30;17.40;99.90
53045;DHT22;38930;52.766;6.884;2023-08-30T14:47:56;17.60;99.90
53045;DHT22;38930;52.766;6.884;2023-08-30T14:50:21;17.70;99.90
53045;DHT22;38930;52.766;6.884;2023-08-30T14:52:47;17.90;99.90
53045;DHT22;38930;52.766;6.884;2023-08-30T14:55:13;18.10;99.90
53045;DHT22;38930;52.766;6.884;2023-08-30T14:57:38;18.20;99.90
53045;DHT22;38930;52.766;6.884;2023-08-30T15:00:05;18.20;99.90
53045;DHT22;38930;52.766;6.884;2023-08-30T15:02:31;18.20;99.90
53045;DHT22;38930;52.766;6.884;2023-08-30T15:04:57;18.00;99.90
53045;DHT22;38930;52.766;6.884;2023-08-30T15:07:22;18.00;99.90
53045;DHT22;38930;52.766;6.884;2023-08-30T15:09:48;17.90;99.90
53045;DHT22;38930;52.766;6.884;2023-08-30T15:12:15;17.70;99.90
53045;DHT22;38930;52.766;6.884;2023-08-30T15:14:41;17.70;99.90
53045;DHT22;38930;52.766;6.884;2023-08-30T15:17:08;17.60;99.90
53045;DHT22;38930;52.766;6.884;2023-08-30T15:19:33;17.50;99.90
53045;DHT22;38930;52.766;6.884;2023-08-30T15:21:59;17.40;99.90
53045;DHT22;38930;52.766;6.884;2023-08-30T15:24:25;17.30;99.90
53045;DHT22;38930;52.766;6.884;2023-08-30T15:26:50;17.30;99.90
53045;DHT22;38930;52.766;6.884;2023-08-30T15:29:16;17.40;99.90
53045;DHT22;38930;52.766;6.884;2023-08-30T15:31:42;17.40;99.90
53045;DHT22;38930;52.766;6.884;2023-08-30T15:34:08;17.50;99.90
53045;DHT22;38930;52.766;6.884;2023-08-30T15:36:34;17.50;99.90